Time;durP1;ratioP1;P1;durP2;ratioP2;P2;SDS_P1;SDS_P2;PMS_P1;PMS_P2;Temp;Humidity;BMP_temperature;BMP_pressure;BME280_temperature;BME280_humidity;BME280_pressure;Samples;Min_cycle;Max_cycle;Signal;HPM_P1;HPM_P2
2023/03/29 00:02:00;;;;;;;7.67;3.50;;;0.30;99.90;;;;;;6188113;23;20675;-83
2023/03/29 00:04:28;;;;;;;5.37;3.60;;;0.60;99.90;;;;;;6189657;23;20367;-82
2023/03/29 00:06:54;;;;;;;6.50;3.53;;;0.70;99.90;;;;;;6193539;23;20347;-82
2023/03/29 00:09:20;;;;;;;7.40;3.80;;;0.80;99.90;;;;;;6189589;23;20356;-82
2023/03/29 00:11:46;;;;;;;8.18;4.45;;;0.60;99.90;;;;;;6163441;23;20433;-84
2023/03/29 00:14:12;;;;;;;9.17;3.97;;;0.40;99.90;;;;;;6189113;23;20407;-84
2023/03/29 00:16:38;;;;;;;6.88;4.00;;;0.50;99.90;;;;;;6201825;23;20351;-82
2023/03/29 00:19:04;;;;;;;7.18;3.83;;;0.50;99.90;;;;;;6208595;23;20350;-86
2023/03/29 00:21:30;;;;;;;8.23;4.20;;;0.70;99.90;;;;;;6198948;23;20489;-80
2023/03/29 00:23:56;;;;;;;7.75;3.85;;;0.60;99.90;;;;;;6187424;23;20738;-83
2023/03/29 00:26:22;;;;;;;6.32;3.50;;;0.60;99.90;;;;;;6160200;23;20795;-83
2023/03/29 00:28:48;;;;;;;5.68;3.53;;;1.00;99.90;;;;;;6186776;23;20359;-85
2023/03/29 00:31:16;;;;;;;7.85;4.22;;;0.90;99.90;;;;;;6188555;23;20809;-81
2023/03/29 00:33:42;;;;;;;6.38;4.35;;;0.90;99.90;;;;;;6198804;23;20354;-82
2023/03/29 00:36:11;;;;;;;8.05;4.20;;;0.90;99.90;;;;;;6200649;23;20344;-80
2023/03/29 00:38:38;;;;;;;11.53;4.63;;;0.90;99.90;;;;;;6198706;23;20440;-81
2023/03/29 00:41:05;;;;;;;8.43;4.90;;;1.30;99.90;;;;;;6199537;23;20403;-82
2023/03/29 00:43:57;;;;;;;7.25;4.70;;;1.00;99.90;;;;;;6198727;23;20402;-81
2023/03/29 00:46:25;;;;;;;10.27;5.40;;;0.90;99.90;;;;;;6197224;23;20419;-81
2023/03/29 00:48:53;;;;;;;9.75;5.00;;;1.10;99.90;;;;;;6168973;23;20351;-81
2023/03/29 00:51:21;;;;;;;7.07;4.35;;;1.10;99.90;;;;;;6164827;23;20352;-80
2023/03/29 00:53:52;;;;;;;8.68;4.38;;;1.20;99.90;;;;;;6163520;23;20366;-81
2023/03/29 00:56:23;;;;;;;7.45;3.95;;;1.20;99.90;;;;;;6162342;23;20352;-82
2023/03/29 00:59:01;;;;;;;8.43;4.47;;;1.20;99.90;;;;;;6189825;23;20356;-83
2023/03/29 01:01:36;;;;;;;9.30;4.40;;;1.20;99.90;;;;;;6191397;23;20366;-80
2023/03/29 01:04:17;;;;;;;8.48;4.65;;;1.10;99.90;;;;;;6164288;23;20383;-82
2023/03/29 01:07:07;;;;;;;8.18;4.82;;;1.10;99.90;;;;;;6190221;23;20359;-83
2023/03/29 01:09:37;;;;;;;9.40;4.43;;;1.20;99.90;;;;;;6168011;23;20429;-83
2023/03/29 01:12:11;;;;;;;6.85;4.32;;;1.30;99.90;;;;;;6160270;23;20359;-85
2023/03/29 01:14:46;;;;;;;9.20;4.30;;;1.20;99.90;;;;;;6187579;23;20348;-84
2023/03/29 01:17:13;;;;;;;6.85;4.30;;;1.30;99.90;;;;;;6188090;23;20351;-84
2023/03/29 01:19:56;;;;;;;10.23;5.18;;;1.60;99.90;;;;;;6188631;23;20415;-83
2023/03/29 01:22:53;;;;;;;9.32;4.70;;;1.20;99.90;;;;;;6163956;23;20376;-80
2023/03/29 01:25:42;;;;;;;7.28;4.13;;;1.20;99.90;;;;;;6189381;23;20380;-84
2023/03/29 01:28:13;;;;;;;10.13;4.90;;;1.40;99.90;;;;;;6189422;23;20418;-84
2023/03/29 01:30:42;;;;;;;8.80;4.80;;;1.00;99.90;;;;;;6189401;23;20363;-85
2023/03/29 01:33:22;;;;;;;9.02;4.68;;;1.40;99.90;;;;;;6189558;23;20807;-83
2023/03/29 01:38:34;;;;;;;7.20;4.37;;;1.30;99.90;;;;;;6212763;22;20386;-84
2023/03/29 01:41:02;;;;;;;11.67;4.70;;;1.60;99.90;;;;;;6194898;23;20342;-83
2023/03/29 01:43:39;;;;;;;7.18;4.43;;;1.40;99.90;;;;;;6221287;23;20384;-85
2023/03/29 01:46:22;;;;;;;7.45;4.30;;;1.80;99.90;;;;;;6195028;23;20404;-83
2023/03/29 01:49:04;;;;;;;9.95;4.90;;;1.40;99.90;;;;;;6222229;23;20342;-84
2023/03/29 01:51:37;;;;;;;8.50;4.30;;;1.80;99.90;;;;;;6192865;23;20364;-85
2023/03/29 01:54:16;;;;;;;8.07;4.23;;;1.40;99.90;;;;;;6219831;23;20346;-82
2023/03/29 01:56:44;;;;;;;7.03;4.30;;;1.30;99.90;;;;;;6218171;23;20338;-85
2023/03/29 01:59:13;;;;;;;10.13;4.80;;;1.30;99.90;;;;;;6220074;23;20378;-84
2023/03/29 02:01:51;;;;;;;7.50;4.30;;;1.40;99.90;;;;;;6192231;23;20354;-83
2023/03/29 02:04:24;;;;;;;8.40;4.37;;;1.20;99.90;;;;;;6219004;23;20448;-82
2023/03/29 02:06:53;;;;;;;6.53;4.50;;;1.30;99.90;;;;;;6192917;23;20358;-81
2023/03/29 02:09:19;;;;;;;7.80;4.35;;;1.50;99.90;;;;;;6217630;23;20385;-84
2023/03/29 02:11:46;;;;;;;7.90;4.22;;;1.50;99.90;;;;;;6192730;23;20794;-81
2023/03/29 02:14:12;;;;;;;8.88;4.72;;;1.20;99.90;;;;;;6219400;23;20357;-82
2023/03/29 02:16:39;;;;;;;7.82;4.45;;;1.00;99.90;;;;;;6221410;23;20350;-84
2023/03/29 02:19:06;;;;;;;7.45;4.38;;;1.10;99.90;;;;;;6193479;23;20382;-81
2023/03/29 02:21:47;;;;;;;7.07;4.13;;;1.10;99.90;;;;;;6229493;22;20353;-82
2023/03/29 02:24:15;;;;;;;6.15;4.28;;;1.30;99.90;;;;;;6234511;22;20361;-82
2023/03/29 02:26:41;;;;;;;7.38;4.10;;;1.70;99.90;;;;;;6237917;22;20337;-85
2023/03/29 02:29:07;;;;;;;6.70;4.30;;;1.20;99.90;;;;;;6203285;23;20393;-82
2023/03/29 02:32:07;;;;;;;6.67;4.10;;;1.50;99.90;;;;;;6220429;23;20351;-82
2023/03/29 02:34:42;;;;;;;7.38;4.30;;;1.20;99.90;;;;;;6218715;23;20342;-84
2023/03/29 02:37:12;;;;;;;7.77;4.47;;;1.10;99.90;;;;;;6217710;23;20368;-81
2023/03/29 02:39:39;;;;;;;5.90;3.90;;;1.30;99.90;;;;;;6219022;23;20853;-82
2023/03/29 02:42:06;;;;;;;7.78;4.13;;;1.50;99.90;;;;;;6220093;23;20345;-82
2023/03/29 02:44:38;;;;;;;7.05;4.20;;;1.10;99.90;;;;;;6217773;23;20433;-84
2023/03/29 02:47:32;;;;;;;6.40;3.78;;;0.90;99.90;;;;;;6218215;23;20369;-82
2023/03/29 02:50:01;;;;;;;10.27;4.28;;;0.70;99.90;;;;;;6217822;23;20357;-82
2023/03/29 02:52:33;;;;;;;7.00;4.20;;;0.60;99.90;;;;;;6220343;23;20421;-83
2023/03/29 02:55:02;;;;;;;7.50;5.00;;;0.60;99.90;;;;;;6191840;23;20415;-83
2023/03/29 02:57:28;;;;;;;7.47;5.05;;;0.40;99.90;;;;;;6218819;23;20346;-82
2023/03/29 02:59:55;;;;;;;8.63;4.75;;;1.10;99.90;;;;;;6217845;23;20428;-82
2023/03/29 03:02:24;;;;;;;7.88;4.75;;;0.60;99.90;;;;;;6189926;23;20350;-84
2023/03/29 03:04:51;;;;;;;9.45;5.28;;;0.50;99.90;;;;;;6217719;23;20378;-84
2023/03/29 03:07:18;;;;;;;7.80;4.88;;;0.30;99.90;;;;;;6188654;23;20377;-82
2023/03/29 03:09:45;;;;;;;9.23;5.13;;;0.40;99.90;;;;;;6184154;23;20430;-86
2023/03/29 03:12:10;;;;;;;10.38;4.55;;;0.60;99.90;;;;;;6189214;23;20841;-83
2023/03/29 03:14:36;;;;;;;8.60;4.57;;;0.40;99.90;;;;;;6215639;23;20472;-83
2023/03/29 03:17:02;;;;;;;6.83;4.57;;;0.30;99.90;;;;;;6188741;23;20447;-83
2023/03/29 03:19:28;;;;;;;10.00;4.80;;;0.40;99.90;;;;;;6190072;23;20349;-84
2023/03/29 03:21:54;;;;;;;7.90;4.37;;;0.60;99.90;;;;;;6189620;23;20356;-84
2023/03/29 03:24:20;;;;;;;5.80;4.70;;;0.30;99.90;;;;;;6188311;23;20374;-84
2023/03/29 03:26:46;;;;;;;8.75;4.72;;;0.30;99.90;;;;;;6218548;23;20358;-82
2023/03/29 03:29:14;;;;;;;7.70;4.90;;;0.30;99.90;;;;;;6218813;23;20437;-82
2023/03/29 03:31:40;;;;;;;7.38;4.70;;;0.30;99.90;;;;;;6192714;23;20358;-83
2023/03/29 03:34:09;;;;;;;7.83;5.10;;;0.10;99.90;;;;;;6194792;23;20456;-84
2023/03/29 03:36:36;;;;;;;11.60;5.28;;;0.50;99.90;;;;;;6219521;23;20349;-84
2023/03/29 03:39:05;;;;;;;6.97;4.67;;;0.40;99.90;;;;;;6219753;23;21072;-82
2023/03/29 03:41:32;;;;;;;9.88;4.80;;;0.70;99.90;;;;;;6220573;23;20337;-83
2023/03/29 03:43:58;;;;;;;9.52;4.63;;;0.60;99.90;;;;;;6193075;23;20365;-82
2023/03/29 03:46:24;;;;;;;11.63;4.78;;;0.60;99.90;;;;;;6220456;23;20338;-83
2023/03/29 03:48:50;;;;;;;8.13;4.80;;;0.50;99.90;;;;;;6220310;23;20350;-83
2023/03/29 03:51:17;;;;;;;10.53;4.90;;;0.70;99.90;;;;;;6221484;23;20726;-83
2023/03/29 03:53:43;;;;;;;9.80;5.40;;;0.50;99.90;;;;;;6220881;23;20426;-83
2023/03/29 03:56:12;;;;;;;9.38;5.05;;;0.70;99.90;;;;;;6221176;23;20357;-84
2023/03/29 03:58:38;;;;;;;6.37;4.63;;;0.80;99.90;;;;;;6220597;23;20361;-81
2023/03/29 04:01:04;;;;;;;8.05;4.28;;;0.40;99.90;;;;;;6219759;23;20677;-83
2023/03/29 04:03:31;;;;;;;8.98;4.85;;;0.50;99.90;;;;;;6220353;23;20423;-85
2023/03/29 04:06:04;;;;;;;7.78;4.70;;;0.50;99.90;;;;;;6193300;23;20393;-82
2023/03/29 04:08:30;;;;;;;7.28;4.57;;;0.60;99.90;;;;;;6194235;23;20358;-83
2023/03/29 04:10:58;;;;;;;12.15;5.70;;;0.80;99.90;;;;;;6219137;23;20352;-84
2023/03/29 04:13:25;;;;;;;9.07;5.13;;;0.30;99.90;;;;;;6190375;23;20525;-84
2023/03/29 04:15:54;;;;;;;8.90;4.93;;;0.20;99.90;;;;;;6218349;23;20349;-84
2023/03/29 04:18:20;;;;;;;10.00;5.70;;;0.30;99.90;;;;;;6217327;23;20414;-83
2023/03/29 04:20:47;;;;;;;8.70;5.32;;;0.80;99.90;;;;;;6189760;23;20369;-87
2023/03/29 04:23:14;;;;;;;7.50;5.00;;;0.20;99.90;;;;;;6189344;23;20735;-84
2023/03/29 04:25:40;;;;;;;9.68;5.18;;;0.50;99.90;;;;;;6216601;23;20373;-83
2023/03/29 04:28:06;;;;;;;9.25;5.32;;;0.30;99.90;;;;;;6190333;23;20405;-84
2023/03/29 04:30:32;;;;;;;9.30;5.60;;;0.00;99.90;;;;;;6217081;23;20352;-83
2023/03/29 04:32:58;;;;;;;10.80;5.57;;;0.10;99.90;;;;;;6215857;23;20342;-84
2023/03/29 04:35:24;;;;;;;11.65;5.38;;;0.10;99.90;;;;;;6188003;23;20352;-84
2023/03/29 04:37:51;;;;;;;9.55;5.03;;;0.20;99.90;;;;;;6185425;23;20490;-86
2023/03/29 04:40:18;;;;;;;8.43;4.72;;;0.20;99.90;;;;;;6214796;23;20354;-84
2023/03/29 04:42:46;;;;;;;8.93;5.13;;;0.30;99.90;;;;;;6215125;23;20349;-84
2023/03/29 04:45:16;;;;;;;7.38;5.03;;;0.40;99.90;;;;;;6214686;23;20444;-84
2023/03/29 04:47:44;;;;;;;6.68;4.80;;;0.40;99.90;;;;;;6214857;23;20751;-83
2023/03/29 04:50:11;;;;;;;6.82;4.78;;;0.40;99.90;;;;;;6216079;23;20338;-86
2023/03/29 04:52:37;;;;;;;8.50;5.10;;;0.50;99.90;;;;;;6214543;23;20387;-84
2023/03/29 04:55:04;;;;;;;7.70;4.70;;;0.60;99.90;;;;;;6219254;23;20644;-83
2023/03/29 04:57:30;;;;;;;6.70;5.00;;;0.60;99.90;;;;;;6215863;23;20388;-84
2023/03/29 04:59:56;;;;;;;9.45;5.20;;;0.70;99.90;;;;;;6216645;23;20334;-82
2023/03/29 05:02:22;;;;;;;8.70;5.40;;;0.80;99.90;;;;;;6218643;23;20354;-84
2023/03/29 05:04:48;;;;;;;9.15;4.97;;;1.00;99.90;;;;;;6218709;23;20366;-83
2023/03/29 05:07:14;;;;;;;8.10;4.82;;;1.10;99.90;;;;;;6216439;23;20902;-81
2023/03/29 05:09:41;;;;;;;10.70;6.10;;;1.10;99.90;;;;;;6217388;23;20465;-83
2023/03/29 05:12:07;;;;;;;9.48;5.57;;;1.10;99.90;;;;;;6199221;23;20434;-84
2023/03/29 05:14:36;;;;;;;7.60;5.07;;;1.20;99.90;;;;;;6237985;22;20350;-84
2023/03/29 05:17:05;;;;;;;9.32;5.45;;;1.10;99.90;;;;;;6235002;22;20350;-81
2023/03/29 05:19:30;;;;;;;11.95;5.28;;;1.10;99.90;;;;;;6218593;23;20444;-82
2023/03/29 05:21:56;;;;;;;8.03;4.70;;;1.40;99.90;;;;;;6189374;23;20413;-84
2023/03/29 05:24:22;;;;;;;10.00;5.50;;;1.40;99.90;;;;;;6186068;23;20465;-84
2023/03/29 05:26:50;;;;;;;13.85;4.90;;;1.40;99.90;;;;;;6212904;23;20362;-88
2023/03/29 05:29:16;;;;;;;7.47;4.70;;;1.40;99.90;;;;;;6212876;23;20350;-88
2023/03/29 05:31:42;;;;;;;7.70;4.45;;;1.50;99.90;;;;;;6185809;23;20377;-85
2023/03/29 05:34:08;;;;;;;7.30;4.72;;;1.60;99.90;;;;;;6186392;23;20354;-87
2023/03/29 05:36:33;;;;;;;8.17;4.97;;;1.50;99.90;;;;;;6184929;23;20373;-87
2023/03/29 05:39:00;;;;;;;7.77;4.50;;;1.40;99.90;;;;;;6213071;23;20801;-83
2023/03/29 05:41:28;;;;;;;8.83;4.87;;;1.50;99.90;;;;;;6186184;23;20441;-86
2023/03/29 05:43:55;;;;;;;9.45;4.68;;;1.70;99.90;;;;;;6161844;23;20939;-87
2023/03/29 05:46:20;;;;;;;9.75;4.68;;;1.90;99.90;;;;;;6212909;23;20346;-86
2023/03/29 05:48:46;;;;;;;9.68;4.90;;;2.10;99.90;;;;;;6213579;23;20373;-83
2023/03/29 05:51:12;;;;;;;8.63;4.60;;;2.20;99.90;;;;;;6213563;23;20758;-85
2023/03/29 05:53:38;;;;;;;10.05;4.88;;;2.50;99.90;;;;;;6214276;23;20349;-82
2023/03/29 05:56:04;;;;;;;9.55;4.70;;;2.60;99.90;;;;;;6215757;23;20350;-83
2023/03/29 05:58:30;;;;;;;9.45;5.05;;;2.80;99.90;;;;;;6214943;23;20388;-82
2023/03/29 06:00:59;;;;;;;8.57;4.63;;;3.00;99.90;;;;;;6213254;23;20350;-87
2023/03/29 06:03:26;;;;;;;10.43;5.22;;;3.20;99.90;;;;;;6213597;23;20352;-87
2023/03/29 06:05:57;;;;;;;8.43;5.13;;;3.30;99.90;;;;;;6214154;23;20899;-82
2023/03/29 06:08:24;;;;;;;12.50;5.57;;;3.20;99.90;;;;;;6208604;23;20376;-82
2023/03/29 06:10:55;;;;;;;7.82;4.70;;;3.40;99.90;;;;;;6210968;23;20338;-86
2023/03/29 06:13:21;;;;;;;8.48;5.10;;;3.60;99.90;;;;;;6184422;23;20358;-85
2023/03/29 06:15:47;;;;;;;8.53;4.83;;;3.60;99.90;;;;;;6211115;23;20342;-85
2023/03/29 06:18:12;;;;;;;10.47;5.67;;;3.90;99.90;;;;;;6183753;23;20358;-85
2023/03/29 06:20:38;;;;;;;7.07;4.57;;;4.00;99.90;;;;;;6211315;23;20343;-86
2023/03/29 06:23:03;;;;;;;9.68;4.70;;;4.10;99.90;;;;;;6211903;23;20789;-86
2023/03/29 06:25:29;;;;;;;11.37;4.73;;;4.10;99.90;;;;;;6212668;23;20832;-85
2023/03/29 06:27:55;;;;;;;9.17;5.17;;;4.10;99.90;;;;;;6212712;23;20346;-85
2023/03/29 06:30:20;;;;;;;8.48;4.97;;;4.30;99.90;;;;;;6186327;23;20358;-82
2023/03/29 06:32:48;;;;;;;11.38;5.50;;;4.50;99.90;;;;;;6212026;23;20357;-84
2023/03/29 06:35:14;;;;;;;10.80;5.28;;;4.60;99.90;;;;;;6185829;23;20361;-80
2023/03/29 06:37:48;;;;;;;8.27;4.63;;;4.90;99.90;;;;;;6214467;23;20381;-82
2023/03/29 06:40:18;;;;;;;7.70;4.80;;;5.10;99.90;;;;;;6182070;23;20354;-84
2023/03/29 06:42:44;;;;;;;14.63;5.07;;;5.10;99.90;;;;;;6185789;23;20805;-86
2023/03/29 06:45:11;;;;;;;7.87;4.57;;;5.00;99.90;;;;;;6186278;23;20454;-86
2023/03/29 06:47:37;;;;;;;8.75;5.25;;;5.10;99.90;;;;;;6212336;23;20346;-84
2023/03/29 06:50:04;;;;;;;8.97;4.63;;;5.20;99.90;;;;;;6189489;23;20493;-78
2023/03/29 06:52:30;;;;;;;7.50;4.78;;;5.30;99.90;;;;;;6192079;23;20354;-83
2023/03/29 06:55:00;;;;;;;8.93;4.75;;;5.30;99.90;;;;;;6190799;23;20364;-83
2023/03/29 06:57:26;;;;;;;9.00;4.60;;;5.50;99.90;;;;;;6188016;23;20435;-84
2023/03/29 06:59:53;;;;;;;9.77;5.18;;;5.40;99.90;;;;;;6215195;23;20342;-83
2023/03/29 07:02:20;;;;;;;10.48;5.18;;;5.30;99.90;;;;;;6187739;23;20451;-84
2023/03/29 07:04:46;;;;;;;9.47;4.77;;;5.50;99.90;;;;;;6187615;23;20385;-83
2023/03/29 07:07:18;;;;;;;10.85;4.88;;;5.50;99.90;;;;;;6212541;23;20708;-82
2023/03/29 07:09:52;;;;;;;14.70;4.88;;;5.70;99.90;;;;;;6212753;23;20365;-83
2023/03/29 07:12:22;;;;;;;8.57;5.10;;;5.90;99.90;;;;;;6184533;23;20354;-82
2023/03/29 07:14:48;;;;;;;9.73;4.70;;;5.40;99.90;;;;;;6212849;23;20376;-84
2023/03/29 07:17:15;;;;;;;9.55;4.60;;;5.30;99.90;;;;;;6213428;23;20500;-85
2023/03/29 07:19:43;;;;;;;9.23;5.03;;;5.60;99.90;;;;;;6213817;23;20346;-84
2023/03/29 07:22:09;;;;;;;9.47;4.63;;;5.70;99.90;;;;;;6187321;23;20415;-81
2023/03/29 07:24:35;;;;;;;10.15;4.80;;;5.90;99.90;;;;;;6186772;23;20389;-84
2023/03/29 07:27:01;;;;;;;11.18;4.80;;;5.80;99.90;;;;;;6215941;23;20428;-85
2023/03/29 07:29:29;;;;;;;9.02;5.13;;;6.00;99.90;;;;;;6189419;23;20350;-84
2023/03/29 07:31:55;;;;;;;7.93;4.90;;;5.70;99.90;;;;;;6187275;23;20358;-83
2023/03/29 07:34:21;;;;;;;9.93;4.78;;;5.60;99.90;;;;;;6207622;23;20357;-83
2023/03/29 07:36:47;;;;;;;13.68;4.80;;;5.80;99.90;;;;;;6187413;23;20365;-82
2023/03/29 07:39:14;;;;;;;12.98;4.63;;;6.10;99.90;;;;;;6187896;23;20433;-82
2023/03/29 07:41:43;;;;;;;10.82;5.05;;;6.30;99.90;;;;;;6190987;23;20436;-82
2023/03/29 07:44:10;;;;;;;12.18;5.45;;;6.30;99.90;;;;;;6189065;23;20374;-84
2023/03/29 07:46:37;;;;;;;9.95;5.05;;;6.40;99.90;;;;;;6189876;23;20377;-82
2023/03/29 07:49:04;;;;;;;8.88;4.60;;;6.40;99.90;;;;;;6189616;23;20357;-83
2023/03/29 07:51:30;;;;;;;9.27;4.50;;;6.50;99.90;;;;;;6219159;23;20349;-86
2023/03/29 07:53:56;;;;;;;9.93;4.60;;;6.90;99.90;;;;;;6217225;23;20420;-84
2023/03/29 07:56:21;;;;;;;7.90;4.43;;;7.10;99.90;;;;;;6193468;23;20798;-84
2023/03/29 07:58:47;;;;;;;10.52;5.07;;;7.00;99.90;;;;;;6194393;23;20421;-81
2023/03/29 08:01:14;;;;;;;11.50;4.40;;;7.00;99.90;;;;;;6224151;23;20357;-84
2023/03/29 08:03:41;;;;;;;11.82;5.00;;;7.20;99.90;;;;;;6210697;23;20431;-84
2023/03/29 08:06:07;;;;;;;8.87;4.53;;;7.40;99.90;;;;;;6212567;23;20476;-82
2023/03/29 08:08:32;;;;;;;7.53;4.30;;;7.80;99.90;;;;;;6193190;23;20448;-83
2023/03/29 08:10:59;;;;;;;10.23;4.40;;;8.00;99.90;;;;;;6193015;23;20700;-82
2023/03/29 08:13:25;;;;;;;7.00;3.78;;;8.30;99.90;;;;;;6192258;23;20862;-83
2023/03/29 08:15:51;;;;;;;7.78;3.88;;;9.30;99.90;;;;;;6191163;23;20354;-81
2023/03/29 08:18:17;;;;;;;8.32;3.72;;;9.70;99.90;;;;;;6218915;23;20349;-85
2023/03/29 08:20:43;;;;;;;7.45;3.90;;;9.70;99.90;;;;;;6190117;23;20412;-81
2023/03/29 08:23:08;;;;;;;6.63;3.20;;;10.60;99.90;;;;;;6190966;23;20350;-82
2023/03/29 08:25:35;;;;;;;6.90;3.70;;;11.40;99.90;;;;;;6188659;23;20904;-85
2023/03/29 08:28:01;;;;;;;7.18;3.75;;;11.50;99.90;;;;;;6217449;23;20349;-87
2023/03/29 08:30:27;;;;;;;7.05;3.80;;;11.60;99.90;;;;;;6190052;23;20334;-82
2023/03/29 08:32:54;;;;;;;6.50;3.70;;;12.40;99.90;;;;;;6188726;23;20820;-83
2023/03/29 08:35:20;;;;;;;7.53;3.60;;;11.90;99.90;;;;;;6187178;23;20357;-84
2023/03/29 08:37:46;;;;;;;6.50;3.37;;;11.60;99.90;;;;;;6215215;23;20357;-86
2023/03/29 08:40:25;;;;;;;7.77;3.30;;;11.30;99.90;;;;;;6191896;23;20407;-84
2023/03/29 08:43:21;;;;;;;7.25;3.92;;;10.50;99.90;;;;;;6189233;23;20354;-85
2023/03/29 08:46:11;;;;;;;6.63;4.03;;;9.80;99.90;;;;;;6188387;23;20362;-84
2023/03/29 08:48:42;;;;;;;6.80;3.80;;;10.20;99.90;;;;;;6193583;23;20342;-84
2023/03/29 08:51:23;;;;;;;5.75;3.40;;;10.70;99.90;;;;;;6188993;23;20425;-88
2023/03/29 08:53:58;;;;;;;7.03;3.47;;;11.10;99.90;;;;;;6187425;23;20362;-85
2023/03/29 08:56:27;;;;;;;7.75;3.58;;;10.80;99.90;;;;;;6187845;23;20452;-83
2023/03/29 08:58:56;;;;;;;7.22;3.90;;;10.00;99.90;;;;;;6213722;23;20346;-82
2023/03/29 09:01:23;;;;;;;8.00;3.45;;;10.20;99.90;;;;;;6186518;23;20409;-84
2023/03/29 09:04:15;;;;;;;5.75;4.00;;;10.50;99.90;;;;;;6214452;23;20370;-84
2023/03/29 09:06:41;;;;;;;6.35;3.30;;;11.00;99.90;;;;;;6215371;23;20389;-84
2023/03/29 09:09:18;;;;;;;5.00;3.00;;;11.60;99.90;;;;;;6185776;23;20390;-84
2023/03/29 09:12:29;;;;;;;7.00;3.63;;;12.20;99.90;;;;;;6189757;23;20349;-87
2023/03/29 09:15:15;;;;;;;9.18;4.10;;;11.60;99.90;;;;;;6188324;23;20354;-87
2023/03/29 09:18:10;;;;;;;5.90;4.10;;;10.80;99.90;;;;;;6190282;23;20406;-84
2023/03/29 09:21:00;;;;;;;6.82;3.42;;;10.70;99.90;;;;;;6189261;23;20825;-84
2023/03/29 09:23:42;;;;;;;6.65;3.70;;;11.30;99.90;;;;;;6188932;23;20354;-85
2023/03/29 09:26:17;;;;;;;7.93;3.80;;;12.30;99.90;;;;;;6216600;23;20346;-85
2023/03/29 09:28:47;;;;;;;6.75;3.72;;;12.60;99.90;;;;;;6189862;23;20361;-84
2023/03/29 09:31:20;;;;;;;7.97;3.77;;;12.00;99.90;;;;;;6189334;23;20455;-85
2023/03/29 09:34:19;;;;;;;7.78;3.67;;;11.50;99.90;;;;;;6186234;23;20928;-85
2023/03/29 09:36:51;;;;;;;7.07;3.78;;;11.60;99.90;;;;;;6108603;23;20365;-85
2023/03/29 09:39:19;;;;;;;5.85;3.85;;;12.20;99.90;;;;;;6211669;23;20376;-86
2023/03/29 09:42:08;;;;;;;7.53;3.75;;;12.50;99.90;;;;;;6186035;23;20364;-85
2023/03/29 09:44:45;;;;;;;5.60;3.45;;;12.90;99.90;;;;;;6186349;23;20378;-84
2023/03/29 09:47:33;;;;;;;6.60;3.70;;;13.50;99.90;;;;;;6185714;23;20674;-85
2023/03/29 09:50:05;;;;;;;5.63;3.63;;;13.60;99.90;;;;;;6186890;23;20445;-84
2023/03/29 09:52:31;;;;;;;7.77;3.70;;;14.50;99.90;;;;;;6186012;23;20361;-85
2023/03/29 09:55:00;;;;;;;5.72;3.10;;;14.60;99.90;;;;;;6185179;23;20768;-84
2023/03/29 09:57:27;;;;;;;4.90;3.55;;;14.40;99.90;;;;;;6187153;23;20353;-85
2023/03/29 09:59:53;;;;;;;5.38;3.50;;;13.60;99.90;;;;;;6188160;23;20429;-85
2023/03/29 10:02:20;;;;;;;7.57;3.70;;;13.70;99.90;;;;;;6189987;23;20354;-85
2023/03/29 10:04:59;;;;;;;7.32;3.90;;;14.50;99.90;;;;;;6187780;23;20460;-87
2023/03/29 10:07:45;;;;;;;4.78;3.47;;;13.80;99.90;;;;;;6214297;23;20338;-87
2023/03/29 10:10:36;;;;;;;8.97;4.07;;;13.20;99.90;;;;;;6187167;23;20377;-83
2023/03/29 10:13:15;;;;;;;6.20;4.03;;;13.40;99.90;;;;;;6185700;23;20354;-85
2023/03/29 10:15:41;;;;;;;6.18;3.47;;;12.80;99.90;;;;;;6184413;23;20390;-86
2023/03/29 10:18:12;;;;;;;5.97;3.13;;;13.80;99.90;;;;;;6184998;23;20692;-85
2023/03/29 10:20:39;;;;;;;4.47;3.08;;;14.80;99.90;;;;;;6184297;23;20350;-85
2023/03/29 10:23:07;;;;;;;5.68;3.60;;;14.20;99.90;;;;;;6215104;23;20381;-85
2023/03/29 10:25:39;;;;;;;6.20;3.30;;;13.90;99.90;;;;;;6187971;23;20630;-85
2023/03/29 10:28:16;;;;;;;7.95;3.70;;;13.80;99.90;;;;;;6187021;23;20376;-85
2023/03/29 10:30:44;;;;;;;4.75;3.63;;;13.00;99.90;;;;;;6183837;23;20366;-85
2023/03/29 10:33:20;;;;;;;5.38;3.13;;;12.10;99.90;;;;;;6191318;23;20372;-88
2023/03/29 10:35:47;;;;;;;4.18;3.38;;;12.00;99.90;;;;;;6187732;23;20385;-86
2023/03/29 10:38:17;;;;;;;15.82;4.28;;;11.60;99.90;;;;;;6211014;23;20431;-85
2023/03/29 10:40:46;;;;;;;16.58;4.30;;;11.60;99.90;;;;;;6186101;23;20357;-85
2023/03/29 10:43:18;;;;;;;8.67;3.80;;;11.70;99.90;;;;;;6183559;23;20724;-86
2023/03/29 10:45:50;;;;;;;7.25;3.78;;;12.20;99.90;;;;;;6179145;23;20375;-87
2023/03/29 10:48:18;;;;;;;6.25;3.40;;;12.40;99.90;;;;;;6179334;23;20377;-85
2023/03/29 10:50:51;;;;;;;4.22;3.45;;;12.40;99.90;;;;;;6184156;23;20414;-84
2023/03/29 10:53:27;;;;;;;5.25;3.25;;;12.00;99.90;;;;;;6228975;23;20342;-83
2023/03/29 10:56:00;;;;;;;7.40;3.60;;;11.60;99.90;;;;;;6208241;23;20350;-84
2023/03/29 10:58:53;;;;;;;6.10;3.58;;;11.50;99.90;;;;;;6186035;23;20354;-80
2023/03/29 11:01:46;;;;;;;5.22;3.30;;;11.20;99.90;;;;;;6183540;23;20346;-83
2023/03/29 11:04:25;;;;;;;6.47;4.03;;;11.20;99.90;;;;;;6181148;23;20377;-82
2023/03/29 11:07:25;;;;;;;6.15;3.33;;;11.20;99.90;;;;;;6183666;23;21154;-82
2023/03/29 11:10:03;;;;;;;4.85;3.78;;;11.60;99.90;;;;;;6182841;23;20464;-82
2023/03/29 11:12:42;;;;;;;43.97;6.65;;;11.70;99.90;;;;;;6183642;23;20362;-82
2023/03/29 11:15:54;;;;;;;20.25;5.20;;;11.60;99.90;;;;;;6182336;23;20350;-82
2023/03/29 11:18:21;;;;;;;8.82;4.57;;;11.60;99.90;;;;;;6102588;23;20361;-81
2023/03/29 11:20:57;;;;;;;5.32;3.72;;;11.60;99.90;;;;;;6185604;23;20678;-81
2023/03/29 11:23:36;;;;;;;5.47;3.70;;;11.90;99.90;;;;;;6186385;23;20369;-81
2023/03/29 11:26:14;;;;;;;5.78;3.92;;;12.20;99.90;;;;;;6185863;23;20357;-78
2023/03/29 11:28:48;;;;;;;5.75;3.85;;;11.90;99.90;;;;;;6213526;23;20863;-81
2023/03/29 11:31:30;;;;;;;7.25;3.90;;;12.00;99.90;;;;;;6186693;23;20413;-81
2023/03/29 11:34:19;;;;;;;4.43;3.73;;;12.60;99.90;;;;;;6186958;23;20417;-82
2023/03/29 11:36:56;;;;;;;6.07;4.15;;;12.80;99.90;;;;;;6185807;23;20452;-81
2023/03/29 11:39:57;;;;;;;5.88;4.10;;;12.50;99.90;;;;;;6211420;23;20839;-81
2023/03/29 11:42:28;;;;;;;4.07;3.40;;;12.20;99.90;;;;;;6047486;23;20373;-81
2023/03/29 11:44:58;;;;;;;4.78;3.63;;;12.20;99.90;;;;;;6185049;23;20423;-82
2023/03/29 11:47:29;;;;;;;4.35;3.60;;;12.30;99.90;;;;;;6118472;23;20448;-81
2023/03/29 11:50:25;;;;;;;3.90;3.50;;;12.20;99.90;;;;;;6126007;23;20362;-81
2023/03/29 11:52:56;;;;;;;4.00;3.40;;;11.70;99.90;;;;;;6210803;23;20342;-82
2023/03/29 11:55:26;;;;;;;5.22;3.50;;;11.70;99.90;;;;;;6127554;23;20426;-82
2023/03/29 11:58:01;;;;;;;5.82;3.60;;;11.60;99.90;;;;;;6183561;23;20632;-82
2023/03/29 12:00:37;;;;;;;4.53;3.78;;;11.50;99.90;;;;;;6212441;23;20733;-81
2023/03/29 12:03:27;;;;;;;4.72;3.85;;;11.00;99.90;;;;;;6185222;23;20413;-81
2023/03/29 12:06:03;;;;;;;5.05;4.10;;;10.80;99.90;;;;;;6210017;23;20423;-81
2023/03/29 12:08:38;;;;;;;4.78;3.80;;;11.00;99.90;;;;;;6185346;23;20499;-81
2023/03/29 12:11:18;;;;;;;6.28;3.90;;;11.20;99.90;;;;;;6184936;23;20350;-81
2023/03/29 12:13:48;;;;;;;5.25;3.53;;;11.20;99.90;;;;;;6118361;23;20868;-80
2023/03/29 12:16:21;;;;;;;5.68;4.18;;;11.10;99.90;;;;;;6213436;23;20349;-81
2023/03/29 12:18:52;;;;;;;4.88;4.18;;;11.20;99.90;;;;;;6188184;23;20389;-80
2023/03/29 12:21:21;;;;;;;5.35;3.70;;;11.40;99.90;;;;;;6211890;23;20346;-81
2023/03/29 12:23:48;;;;;;;5.25;3.65;;;11.20;99.90;;;;;;6183522;23;20374;-82
2023/03/29 12:26:26;;;;;;;4.55;3.80;;;10.90;99.90;;;;;;6182785;23;20358;-82
2023/03/29 12:29:30;;;;;;;10.55;4.20;;;10.90;99.90;;;;;;6183219;23;20366;-81
2023/03/29 12:32:41;;;;;;;7.38;4.40;;;10.80;99.90;;;;;;6186366;23;20461;-81
2023/03/29 12:35:29;;;;;;;6.00;4.22;;;11.10;99.90;;;;;;6184766;23;20350;-81
2023/03/29 12:38:14;;;;;;;4.85;3.90;;;11.30;99.90;;;;;;6212459;23;20436;-81
2023/03/29 12:40:43;;;;;;;5.60;4.28;;;11.60;99.90;;;;;;6182988;23;20350;-81
2023/03/29 12:43:26;;;;;;;5.05;3.70;;;11.60;99.90;;;;;;6185747;23;20766;-82
2023/03/29 12:46:04;;;;;;;6.55;3.60;;;11.40;99.90;;;;;;6186915;23;20350;-83
2023/03/29 12:48:30;;;;;;;6.68;3.70;;;11.60;99.90;;;;;;6186327;23;20389;-81
2023/03/29 12:51:02;;;;;;;5.15;3.47;;;11.70;99.90;;;;;;6187973;23;20349;-81
2023/03/29 12:53:48;;;;;;;5.97;3.63;;;11.30;99.90;;;;;;6184406;23;20358;-82
2023/03/29 12:56:35;;;;;;;4.25;3.42;;;11.10;99.90;;;;;;6186812;23;20360;-80
2023/03/29 12:59:10;;;;;;;6.05;3.88;;;11.20;99.90;;;;;;6213309;23;20342;-81
2023/03/29 13:01:39;;;;;;;6.30;3.60;;;11.10;99.90;;;;;;6188278;23;20412;-81
2023/03/29 13:04:21;;;;;;;5.07;3.38;;;11.20;99.90;;;;;;6187276;23;20456;-80
2023/03/29 13:07:02;;;;;;;5.80;3.42;;;11.60;99.90;;;;;;6187854;23;20829;-82
2023/03/29 13:09:30;;;;;;;4.60;3.58;;;11.30;99.90;;;;;;6183556;23;20362;-81
2023/03/29 13:12:06;;;;;;;4.43;2.80;;;11.70;99.90;;;;;;6185034;23;20354;-80
2023/03/29 13:14:37;;;;;;;4.32;3.38;;;11.60;99.90;;;;;;6187215;23;20357;-82
2023/03/29 13:17:10;;;;;;;5.82;3.33;;;11.30;99.90;;;;;;6214183;23;20883;-80
2023/03/29 13:20:12;;;;;;;5.78;3.25;;;11.20;99.90;;;;;;6215295;23;20342;-80